Time;durP1;ratioP1;P1;durP2;ratioP2;P2;SDS_P1;SDS_P2;PMS_P1;PMS_P2;Temp;Humidity;BMP_temperature;BMP_pressure;BME280_temperature;BME280_humidity;BME280_pressure;Samples;Min_cycle;Max_cycle;Signal;HPM_P1;HPM_P2
2022/03/21 00:01:20;;;;;;;32.50;13.55;;;;;;;2.92;34.67;103193.83;1778942;78;27951;-63
2022/03/21 00:03:46;;;;;;;30.25;13.22;;;;;;;2.90;34.73;103194.22;1761600;78;98897;-63
2022/03/21 00:06:13;;;;;;;35.98;14.05;;;;;;;2.89;34.80;103196.39;1769161;78;27449;-63
2022/03/21 00:08:40;;;;;;;34.13;13.98;;;;;;;2.87;34.83;103191.48;1779173;78;26699;-63
2022/03/21 00:11:06;;;;;;;29.30;12.95;;;;;;;2.84;34.91;103196.26;1767603;78;98804;-65
2022/03/21 00:13:32;;;;;;;32.23;13.70;;;;;;;2.82;34.98;103195.31;1777625;78;34954;-65
2022/03/21 00:15:58;;;;;;;39.83;15.38;;;;;;;2.81;35.01;103190.88;1769488;78;99132;-63
2022/03/21 00:18:25;;;;;;;36.25;14.58;;;;;;;2.80;35.06;103193.48;1772235;78;27387;-64
2022/03/21 00:20:57;;;;;;;30.55;13.22;;;;;;;2.76;35.04;103189.84;1769283;78;25796;-63
2022/03/21 00:23:23;;;;;;;29.67;13.53;;;;;;;2.74;35.21;103186.25;1780684;78;98410;-63
2022/03/21 00:25:49;;;;;;;39.53;14.45;;;;;;;2.71;35.19;103191.45;1773441;78;26069;-63
2022/03/21 00:28:15;;;;;;;39.33;15.75;;;;;;;2.68;35.27;103185.17;1772715;78;99149;-63
2022/03/21 00:30:44;;;;;;;35.52;15.93;;;;;;;2.65;35.33;103190.38;1772043;78;26944;-64
2022/03/21 00:33:11;;;;;;;39.58;16.30;;;;;;;2.61;35.37;103182.77;1775608;78;99307;-65
2022/03/21 00:35:38;;;;;;;32.30;14.00;;;;;;;2.58;35.41;103184.03;1777636;78;26215;-65
2022/03/21 00:38:06;;;;;;;32.00;13.85;;;;;;;2.56;35.47;103184.41;1764960;79;26771;-65
2022/03/21 00:40:32;;;;;;;40.12;14.55;;;;;;;2.54;35.51;103190.09;1758836;79;98831;-65
2022/03/21 00:42:58;;;;;;;33.92;14.55;;;;;;;2.52;35.56;103191.36;1777986;78;29519;-63
2022/03/21 00:45:25;;;;;;;30.37;13.48;;;;;;;2.49;35.56;103189.95;1768904;78;98944;-65
2022/03/21 00:47:54;;;;;;;38.35;14.50;;;;;;;2.48;35.61;103196.09;1773146;78;25820;-63
2022/03/21 00:50:24;;;;;;;34.90;14.80;;;;;;;2.48;35.67;103191.22;1770621;78;25709;-63
2022/03/21 00:52:54;;;;;;;35.70;15.80;;;;;;;2.46;35.69;103196.89;1767634;78;98707;-63
2022/03/21 00:55:26;;;;;;;36.77;14.00;;;;;;;2.44;35.72;103185.36;1774022;78;27452;-63
2022/03/21 00:57:51;;;;;;;35.55;16.15;;;;;;;2.42;35.76;103192.36;1775764;78;98847;-63
2022/03/21 01:00:21;;;;;;;33.73;14.40;;;;;;;2.40;35.85;103194.95;1766865;78;30343;-63
2022/03/21 01:02:48;;;;;;;35.48;15.25;;;;;;;2.38;35.92;103190.47;1774238;78;25751;-64
2022/03/21 01:05:14;;;;;;;37.75;15.30;;;;;;;2.34;35.96;103191.22;1776910;78;98825;-63
2022/03/21 01:07:41;;;;;;;36.85;15.35;;;;;;;2.32;35.99;103188.95;1771527;78;27454;-64
2022/03/21 01:10:11;;;;;;;34.18;15.00;;;;;;;2.29;36.04;103191.08;1769512;78;98732;-64
2022/03/21 01:12:37;;;;;;;33.67;15.13;;;;;;;2.26;36.10;103189.66;1779138;78;25793;-63
2022/03/21 01:15:05;;;;;;;34.85;15.28;;;;;;;2.23;36.10;103187.81;1776275;78;25798;-63
2022/03/21 01:17:31;;;;;;;31.25;14.18;;;;;;;2.20;36.15;103186.82;1780423;78;98523;-66
2022/03/21 01:19:57;;;;;;;44.48;16.95;;;;;;;2.19;36.25;103177.98;1781895;78;27388;-64
2022/03/21 01:22:23;;;;;;;41.20;16.52;;;;;;;2.16;36.29;103179.64;1775577;78;98709;-64
2022/03/21 01:24:49;;;;;;;35.52;15.18;;;;;;;2.13;36.34;103177.79;1776566;78;30353;-65
2022/03/21 01:27:14;;;;;;;39.67;15.35;;;;;;;2.11;36.37;103179.49;1769800;78;98836;-65
2022/03/21 01:29:41;;;;;;;36.42;14.83;;;;;;;2.08;36.39;103171.45;1770533;78;25769;-65
2022/03/21 01:32:07;;;;;;;36.00;14.78;;;;;;;2.08;36.46;103177.17;1774939;78;27481;-65
2022/03/21 01:34:33;;;;;;;34.27;14.03;;;;;;;2.07;36.50;103176.27;1769503;78;98560;-65
2022/03/21 01:36:59;;;;;;;31.12;13.98;;;;;;;2.06;36.50;103174.48;1761228;79;30343;-63
2022/03/21 01:39:25;;;;;;;41.10;16.27;;;;;;;2.05;36.53;103179.30;1765185;79;99010;-65
2022/03/21 01:41:51;;;;;;;36.95;15.23;;;;;;;2.05;36.62;103171.78;1778573;78;25771;-63
2022/03/21 01:44:18;;;;;;;41.55;16.62;;;;;;;2.05;36.62;103178.39;1769224;78;27412;-63
2022/03/21 01:46:44;;;;;;;37.85;15.10;;;;;;;2.04;36.67;103176.17;1776339;78;98663;-63
2022/03/21 01:49:10;;;;;;;39.35;16.42;;;;;;;2.04;36.72;103171.31;1783403;78;25761;-63
2022/03/21 01:51:37;;;;;;;40.60;16.75;;;;;;;2.03;36.77;103167.77;1781825;78;98970;-65
2022/03/21 01:56:50;;;;;;;37.08;14.60;;;;;;;2.03;36.80;103165.55;1782633;78;27507;-63
2022/03/21 01:59:19;;;;;;;38.42;15.85;;;;;;;2.02;36.87;103157.14;1770724;78;98806;-63
2022/03/21 02:01:45;;;;;;;35.15;14.53;;;;;;;2.03;36.91;103150.57;1781749;78;25835;-63
2022/03/21 02:04:12;;;;;;;34.35;15.45;;;;;;;2.02;36.90;103150.09;1778424;78;98701;-63
2022/03/21 02:06:38;;;;;;;31.40;13.88;;;;;;;2.01;36.96;103154.92;1773030;78;25771;-63
2022/03/21 02:09:07;;;;;;;34.92;16.62;;;;;;;2.03;37.02;103157.19;1779400;78;29514;-65
2022/03/21 02:11:34;;;;;;;42.17;16.40;;;;;;;2.02;37.04;103157.14;1782730;78;98507;-63
2022/03/21 02:14:03;;;;;;;39.80;16.32;;;;;;;2.00;37.12;103155.77;1787643;78;26490;-63
2022/03/21 02:16:31;;;;;;;36.77;16.45;;;;;;;1.96;37.17;103151.23;1777197;78;98703;-65
2022/03/21 02:19:07;;;;;;;39.55;16.90;;;;;;;1.91;37.22;103151.08;1777723;78;25801;-63
2022/03/21 02:22:14;;;;;;;35.28;16.45;;;;;;;1.89;37.27;103149.23;1739969;80;98937;-63
2022/03/21 02:24:49;;;;;;;41.20;17.07;;;;;;;1.86;37.28;103150.03;1734605;80;25768;-63
2022/03/21 02:27:17;;;;;;;40.08;16.48;;;;;;;1.83;37.34;103147.71;1736171;80;98943;-64
2022/03/21 02:29:47;;;;;;;39.40;17.45;;;;;;;1.80;37.39;103146.29;1724840;81;26348;-63
2022/03/21 02:32:13;;;;;;;36.77;15.15;;;;;;;1.77;37.39;103153.70;1770435;78;25431;-64
2022/03/21 02:34:40;;;;;;;33.00;15.00;;;;;;;1.76;37.45;103149.69;1770150;78;98696;-64
2022/03/21 02:37:10;;;;;;;45.10;16.15;;;;;;;1.73;37.50;103153.13;1763286;78;25694;-64
2022/03/21 02:39:38;;;;;;;37.57;16.00;;;;;;;1.71;37.54;103146.89;1733085;81;99321;-64
2022/03/21 02:42:05;;;;;;;43.35;16.75;;;;;;;1.70;37.55;103149.05;1743996;81;26412;-63
2022/03/21 02:44:38;;;;;;;37.33;15.08;;;;;;;1.68;37.64;103146.78;1735306;81;26337;-63
2022/03/21 02:47:06;;;;;;;40.12;16.05;;;;;;;1.68;37.65;103143.25;1717556;81;99097;-63
2022/03/21 02:49:33;;;;;;;32.20;14.98;;;;;;;1.66;37.74;103147.58;1714855;80;25917;-63
2022/03/21 02:52:04;;;;;;;36.35;16.27;;;;;;;1.65;37.74;103148.43;1712879;80;98832;-63
2022/03/21 02:54:31;;;;;;;37.00;15.10;;;;;;;1.63;37.76;103153.67;1718304;81;27938;-65
2022/03/21 02:56:58;;;;;;;38.42;14.80;;;;;;;1.61;37.84;103150.08;1716540;80;25819;-63
2022/03/21 02:59:25;;;;;;;40.40;16.37;;;;;;;1.58;37.86;103146.91;1708360;80;98712;-63
2022/03/21 03:01:53;;;;;;;36.90;15.30;;;;;;;1.57;37.92;103144.20;1707557;81;25935;-64
2022/03/21 03:04:25;;;;;;;35.63;16.42;;;;;;;1.54;37.97;103137.08;1727275;80;98658;-65
2022/03/21 03:06:51;;;;;;;;;;;;;;;1.50;37.98;103131.21;1740317;80;25784;-65
2022/03/21 03:09:17;;;;;;;34.23;15.23;;;;;;;1.52;38.09;103139.19;1728385;80;84282;-63
2022/03/21 03:11:43;;;;;;;42.75;16.17;;;;;;;1.49;38.06;103136.45;1742835;80;29452;-64
2022/03/21 03:14:10;;;;;;;33.30;15.35;;;;;;;1.46;38.11;103138.56;1734795;80;26177;-65
2022/03/21 03:16:36;;;;;;;35.58;15.25;;;;;;;1.46;38.15;103137.66;1743082;80;98739;-63
2022/03/21 03:19:03;;;;;;;36.20;16.50;;;;;;;1.43;38.16;103137.56;1745507;80;25863;-64
2022/03/21 03:21:34;;;;;;;36.33;14.70;;;;;;;1.40;38.22;103139.67;1734840;80;98988;-63
2022/03/21 03:24:01;;;;;;;30.08;14.23;;;;;;;1.39;38.23;103148.87;1738129;80;27461;-63
2022/03/21 03:26:27;;;;;;;42.27;14.85;;;;;;;1.40;38.34;103149.34;1732464;80;27207;-63
2022/03/21 03:28:53;;;;;;;38.50;15.72;;;;;;;1.39;38.30;103144.91;1744846;80;98743;-64
2022/03/21 03:31:19;;;;;;;37.08;15.25;;;;;;;1.37;38.39;103143.53;1742131;80;35394;-63
2022/03/21 03:33:47;;;;;;;32.78;15.05;;;;;;;1.35;38.44;103145.22;1741968;80;99021;-63
2022/03/21 03:36:17;;;;;;;33.60;15.23;;;;;;;1.31;38.51;103143.32;1739696;80;29351;-63
2022/03/21 03:38:45;;;;;;;38.70;15.93;;;;;;;1.29;38.56;103145.02;1758059;79;26035;-63
2022/03/21 03:41:12;;;;;;;35.60;15.38;;;;;;;1.25;38.58;103150.61;1757426;79;98809;-63
2022/03/21 03:43:38;;;;;;;39.50;15.72;;;;;;;1.21;38.58;103147.39;1749111;79;25832;-65
2022/03/21 03:46:05;;;;;;;40.08;15.48;;;;;;;1.13;38.69;103136.98;1757603;79;98697;-65
2022/03/21 03:48:31;;;;;;;41.65;15.75;;;;;;;1.16;38.71;103149.39;1759194;79;27407;-63
2022/03/21 03:50:57;;;;;;;38.98;15.55;;;;;;;1.12;38.80;103144.84;1757825;79;26008;-65
2022/03/21 03:53:23;;;;;;;38.40;15.63;;;;;;;1.09;38.84;103149.59;1754366;79;98863;-63
2022/03/21 03:55:49;;;;;;;33.35;14.83;;;;;;;1.07;38.90;103140.72;1755563;79;27753;-63
2022/03/21 03:58:15;;;;;;;35.70;14.95;;;;;;;1.04;38.95;103145.00;1764507;78;98817;-64
2022/03/21 04:00:41;;;;;;;33.95;14.50;;;;;;;1.03;38.99;103144.52;1782215;78;27370;-64
2022/03/21 04:05:52;;;;;;;36.42;16.05;;;;;;;0.96;39.09;103148.69;1781962;78;98636;-63
2022/03/21 04:08:18;;;;;;;38.38;15.38;;;;;;;0.91;39.18;103148.52;1774915;78;25667;-63
2022/03/21 04:10:44;;;;;;;37.15;15.28;;;;;;;0.89;39.20;103150.20;1772726;78;98785;-63
2022/03/21 04:13:10;;;;;;;35.23;14.55;;;;;;;0.88;39.27;103151.47;1769854;78;27325;-63
2022/03/21 04:15:36;;;;;;;41.98;15.15;;;;;;;0.84;39.31;103146.92;1766972;78;98967;-63
2022/03/21 04:18:04;;;;;;;33.45;14.28;;;;;;;0.82;39.37;103150.83;1766365;78;30750;-65
2022/03/21 04:20:31;;;;;;;37.45;14.13;;;;;;;0.79;39.37;103145.43;1768193;78;26237;-65
2022/03/21 04:23:01;;;;;;;37.63;14.80;;;;;;;0.76;39.48;103151.92;1771088;79;98794;-63
2022/03/21 04:25:27;;;;;;;37.60;16.10;;;;;;;0.75;39.52;103154.50;1763303;79;27518;-63
2022/03/21 04:27:54;;;;;;;44.80;15.80;;;;;;;0.73;39.57;103154.86;1768537;78;97880;-64
2022/03/21 04:30:22;;;;;;;37.08;15.30;;;;;;;0.70;39.65;103158.29;1773015;78;25982;-63
2022/03/21 04:32:48;;;;;;;34.33;15.38;;;;;;;0.69;39.63;103152.95;1766347;78;25956;-64
2022/03/21 04:35:14;;;;;;;47.62;16.60;;;;;;;0.65;39.72;103153.26;1765892;78;98749;-65
2022/03/21 04:37:40;;;;;;;31.80;13.32;;;;;;;0.63;39.76;103155.84;1768414;78;29404;-63
2022/03/21 04:40:08;;;;;;;46.50;16.42;;;;;;;0.62;39.76;103155.78;1761092;79;98889;-66
2022/03/21 04:42:36;;;;;;;44.85;16.67;;;;;;;0.60;39.91;103160.11;1762293;79;25882;-66
2022/03/21 04:45:04;;;;;;;41.80;14.78;;;;;;;0.57;39.97;103156.03;1756133;79;26318;-63
2022/03/21 04:47:31;;;;;;;44.53;16.35;;;;;;;0.55;40.01;103161.25;1755895;79;98715;-63
2022/03/21 04:49:57;;;;;;;39.35;15.75;;;;;;;0.54;40.12;103161.20;1764305;79;27446;-63
2022/03/21 04:52:24;;;;;;;50.40;15.98;;;;;;;0.51;40.18;103159.34;1733656;80;98654;-63
2022/03/21 04:54:50;;;;;;;64.12;18.25;;;;;;;0.49;40.21;103164.98;1725571;81;26442;-63
2022/03/21 04:57:22;;;;;;;39.48;16.82;;;;;;;0.47;40.29;103164.44;1740158;80;25736;-66
2022/03/21 04:59:48;;;;;;;41.53;16.67;;;;;;;0.46;40.33;103167.92;1711263;81;98430;-64
2022/03/21 05:02:14;;;;;;;46.10;18.25;;;;;;;0.44;40.42;103161.27;1722317;81;27408;-64
2022/03/21 05:04:40;;;;;;;43.42;17.80;;;;;;;0.44;40.47;103161.27;1720178;81;98812;-64
2022/03/21 05:07:06;;;;;;;35.70;16.30;;;;;;;0.43;40.51;103163.42;1713629;81;25842;-64
2022/03/21 05:09:32;;;;;;;38.90;15.63;;;;;;;0.42;40.52;103169.55;1724167;81;98833;-64
2022/03/21 05:11:58;;;;;;;34.18;16.12;;;;;;;0.43;40.56;103167.80;1724333;81;25722;-64
2022/03/21 05:14:24;;;;;;;36.05;15.55;;;;;;;0.44;40.69;103169.59;1733681;80;27334;-64
2022/03/21 05:16:50;;;;;;;48.58;17.48;;;;;;;0.43;40.70;103167.80;1722892;80;98708;-64
2022/03/21 05:19:16;;;;;;;38.55;15.58;;;;;;;0.45;40.79;103166.13;1726563;79;26098;-64
2022/03/21 05:21:43;;;;;;;41.53;15.50;;;;;;;0.47;40.74;103169.30;1722457;81;98895;-64
2022/03/21 05:32:26;;;;;;;40.70;13.93;;;;;;;0.57;40.95;103185.06;1727764;80;25796;-64
2022/03/21 05:37:36;;;;;;;33.48;15.60;;;;;;;0.65;41.02;103186.25;1711850;81;26344;-64
2022/03/21 05:42:47;;;;;;;38.38;14.85;;;;;;;0.74;41.09;103187.02;1716475;81;26543;-64
2022/03/21 05:45:19;;;;;;;40.40;14.98;;;;;;;0.76;41.12;103192.84;1731758;80;30392;-64
2022/03/21 05:50:25;;;;;;;32.33;13.50;;;;;;;0.80;41.18;103192.53;1731376;80;26458;-64
2022/03/21 05:52:51;;;;;;;36.77;14.58;;;;;;;0.84;41.21;103195.77;1729944;80;97842;-64
2022/03/21 05:55:17;;;;;;;33.08;14.83;;;;;;;0.87;41.22;103198.09;1717338;81;25718;-64
2022/03/21 05:57:43;;;;;;;45.03;15.53;;;;;;;0.94;41.28;103197.90;1710656;81;99755;-63
2022/03/21 06:00:20;;;;;;;37.93;14.30;;;;;;;1.04;41.33;103193.86;1726269;80;30100;-64
2022/03/21 06:02:45;;;;;;;35.20;15.25;;;;;;;1.09;41.29;103201.52;1707700;82;26574;-63
2022/03/21 06:05:12;;;;;;;45.52;16.65;;;;;;;1.11;41.33;103201.16;1722813;80;98584;-64
2022/03/21 06:07:38;;;;;;;38.75;14.00;;;;;;;1.13;41.40;103204.75;1697382;82;25646;-63
2022/03/21 06:10:05;;;;;;;31.25;14.73;;;;;;;1.14;41.39;103202.17;1723442;80;98840;-62
2022/03/21 06:12:31;;;;;;;38.58;15.43;;;;;;;1.17;41.45;103199.64;1723077;80;25745;-63
2022/03/21 06:14:57;;;;;;;37.70;15.30;;;;;;;1.20;41.45;103197.53;1724167;80;25776;-64
2022/03/21 06:17:23;;;;;;;45.67;16.48;;;;;;;1.24;41.48;103202.08;1719815;80;98768;-64
2022/03/21 06:19:48;;;;;;;37.38;15.38;;;;;;;1.29;41.55;103199.17;1732507;80;33225;-64
2022/03/21 06:22:14;;;;;;;39.45;14.28;;;;;;;1.34;41.55;103207.27;1721825;80;98776;-70
2022/03/21 06:24:40;;;;;;;44.18;15.65;;;;;;;1.37;41.56;103210.91;1729862;80;34879;-70
2022/03/21 06:27:06;;;;;;;39.50;15.05;;;;;;;1.41;41.58;103211.92;1731426;80;26015;-70
2022/03/21 06:29:32;;;;;;;32.28;14.15;;;;;;;1.47;41.60;103216.10;1710090;81;98831;-70
2022/03/21 06:31:58;;;;;;;41.45;15.98;;;;;;;1.53;41.60;103209.28;1714538;81;26120;-70
2022/03/21 06:34:24;;;;;;;36.70;15.23;;;;;;;1.59;41.65;103205.53;1711541;81;98698;-70
2022/03/21 06:36:50;;;;;;;43.48;16.17;;;;;;;1.66;41.67;103204.42;1712393;81;27806;-71
2022/03/21 06:39:16;;;;;;;49.05;16.77;;;;;;;1.73;41.64;103209.07;1702775;81;30186;-69
2022/03/21 06:41:43;;;;;;;34.10;15.55;;;;;;;1.79;41.66;103206.63;1677221;82;98720;-69
2022/03/21 06:44:08;;;;;;;44.42;16.52;;;;;;;1.86;41.68;103209.95;1728789;81;27100;-70
2022/03/21 06:46:34;;;;;;;60.28;16.57;;;;;;;1.92;41.65;103203.55;1721296;81;98762;-69
2022/03/21 06:49:00;;;;;;;39.38;14.98;;;;;;;2.03;41.68;103210.52;1708730;81;27842;-69
2022/03/21 06:51:27;;;;;;;44.85;15.72;;;;;;;2.10;41.65;103208.12;1683265;82;25891;-69
2022/03/21 06:53:53;;;;;;;34.38;15.95;;;;;;;2.19;41.66;103204.88;1707117;81;98360;-69
2022/03/21 06:56:19;;;;;;;37.80;16.67;;;;;;;2.27;41.62;103209.98;1696505;82;33260;-69
2022/03/21 06:58:45;;;;;;;42.90;15.63;;;;;;;2.33;41.60;103203.98;1691444;82;98698;-69
2022/03/21 07:01:10;;;;;;;39.90;15.78;;;;;;;2.40;41.59;103216.13;1697310;82;30103;-70
2022/03/21 07:03:36;;;;;;;37.88;16.42;;;;;;;2.45;41.58;103211.88;1696547;82;98886;-69
2022/03/21 07:06:02;;;;;;;43.85;18.10;;;;;;;2.51;41.58;103216.04;1699021;82;27525;-70
2022/03/21 07:08:28;;;;;;;39.75;17.35;;;;;;;2.57;41.56;103213.58;1698605;82;26406;-70
2022/03/21 07:10:54;;;;;;;40.98;17.37;;;;;;;2.65;41.53;103211.56;1700505;82;98846;-70
2022/03/21 07:13:22;;;;;;;37.38;18.17;;;;;;;2.71;41.52;103212.64;1692062;82;25860;-71
2022/03/21 07:15:48;;;;;;;38.17;16.57;;;;;;;2.78;41.49;103213.72;1692295;82;98799;-71
2022/03/21 07:18:15;;;;;;;37.73;16.32;;;;;;;2.83;41.49;103210.36;1693748;82;28457;-70
2022/03/21 07:20:44;;;;;;;35.17;14.65;;;;;;;2.90;41.45;103212.76;1695457;82;26360;-72
2022/03/21 07:23:10;;;;;;;39.65;16.62;;;;;;;2.98;41.44;103211.66;1715089;81;98846;-70
2022/03/21 07:25:36;;;;;;;41.15;17.65;;;;;;;3.07;41.39;103209.27;1685793;82;26153;-70
2022/03/21 07:28:02;;;;;;;45.20;17.75;;;;;;;3.14;41.35;103205.94;1688398;82;99023;-69
2022/03/21 07:30:28;;;;;;;48.50;18.35;;;;;;;3.21;41.34;103207.91;1701625;82;25873;-70
2022/03/21 07:32:55;;;;;;;41.00;16.30;;;;;;;3.29;41.32;103208.12;1709379;81;33291;-71
2022/03/21 07:35:21;;;;;;;33.65;15.45;;;;;;;3.39;41.27;103207.09;1713037;81;99007;-71
2022/03/21 07:37:52;;;;;;;42.58;16.65;;;;;;;3.46;41.20;103212.13;1717393;81;25757;-70
2022/03/21 07:40:18;;;;;;;;;;;;;;;3.53;41.18;103208.35;1699566;82;98870;-70
2022/03/21 07:42:47;;;;;;;41.20;16.75;;;;;;;3.60;41.13;103204.11;1727358;80;27515;-69
2022/03/21 07:48:00;;;;;;;39.53;17.25;;;;;;;3.74;41.03;103203.14;1716503;81;98933;-70
2022/03/21 07:50:28;;;;;;;58.65;20.95;;;;;;;3.83;41.02;103205.59;1731654;80;25834;-71
2022/03/21 07:52:56;;;;;;;37.60;15.80;;;;;;;3.91;40.95;103203.14;1715759;81;98778;-69
2022/03/21 07:55:23;;;;;;;42.48;18.17;;;;;;;4.01;40.94;103205.16;1715790;81;27443;-70
2022/03/21 07:57:49;;;;;;;44.77;15.55;;;;;;;4.11;40.86;103200.54;1735521;80;98900;-71
2022/03/21 08:00:16;;;;;;;37.03;15.80;;;;;;;4.18;40.83;103201.16;1702918;82;25824;-70
2022/03/21 08:02:43;;;;;;;37.23;15.88;;;;;;;4.27;40.78;103199.58;1727889;80;25801;-70
2022/03/21 08:05:10;;;;;;;38.02;17.27;;;;;;;4.36;40.76;103203.77;1724844;80;98712;-71
2022/03/21 08:07:36;;;;;;;38.85;17.25;;;;;;;4.47;40.71;103199.17;1713189;81;27398;-71
2022/03/21 08:10:07;;;;;;;48.13;19.77;;;;;;;4.57;40.62;103202.94;1724135;80;98913;-70
2022/03/21 08:12:33;;;;;;;37.42;18.55;;;;;;;4.67;40.55;103198.72;1715193;81;26488;-70
2022/03/21 08:14:59;;;;;;;43.00;18.27;;;;;;;4.75;40.48;103198.02;1723717;80;26853;-70
2022/03/21 08:17:27;;;;;;;39.35;16.97;;;;;;;4.86;40.45;103198.25;1730887;80;98748;-71
2022/03/21 08:19:54;;;;;;;37.03;17.25;;;;;;;4.96;40.38;103195.35;1725918;81;27480;-70
2022/03/21 08:22:20;;;;;;;35.55;18.37;;;;;;;5.08;40.31;103204.47;1735946;80;97979;-70
2022/03/21 08:24:46;;;;;;;42.13;16.97;;;;;;;5.18;40.24;103190.49;1729688;80;25977;-72
2022/03/21 08:27:14;;;;;;;43.78;17.67;;;;;;;5.28;40.15;103190.64;1712596;82;26083;-70
2022/03/21 08:29:40;;;;;;;37.63;17.57;;;;;;;5.39;40.06;103191.30;1722524;80;98678;-69
2022/03/21 08:32:08;;;;;;;40.50;18.30;;;;;;;5.52;39.96;103190.66;1725830;80;29409;-71
2022/03/21 08:34:33;;;;;;;43.45;17.95;;;;;;;5.63;39.83;103188.63;1718769;81;98866;-70
2022/03/21 08:36:59;;;;;;;39.50;18.52;;;;;;;5.72;39.72;103190.12;1734876;80;30525;-70
2022/03/21 08:39:25;;;;;;;41.23;18.25;;;;;;;5.84;39.66;103186.34;1703398;82;25891;-70
2022/03/21 08:41:52;;;;;;;38.75;17.17;;;;;;;5.92;39.45;103194.05;1697082;82;98722;-71
2022/03/21 08:44:19;;;;;;;32.50;16.85;;;;;;;6.01;39.49;103194.20;1702740;82;27428;-71
2022/03/21 08:46:47;;;;;;;42.10;17.27;;;;;;;6.10;39.37;103193.02;1747053;80;98501;-71
2022/03/21 08:49:27;;;;;;;40.67;16.95;;;;;;;6.18;39.25;103194.47;1745325;80;25815;-71
2022/03/21 08:51:54;;;;;;;42.78;17.45;;;;;;;6.29;39.23;103193.30;1750084;80;98995;-71
2022/03/21 08:54:20;;;;;;;44.83;18.70;;;;;;;6.40;39.09;103199.24;1702526;82;26395;-70
2022/03/21 08:56:47;;;;;;;35.23;16.80;;;;;;;6.49;39.00;103198.48;1693059;82;27470;-70
2022/03/21 08:59:14;;;;;;;36.00;17.40;;;;;;;6.58;38.87;103204.38;1693307;82;97953;-71
2022/03/21 09:01:41;;;;;;;35.70;17.55;;;;;;;6.68;38.76;103201.86;1700049;82;25770;-71
2022/03/21 09:04:08;;;;;;;46.77;19.67;;;;;;;6.78;38.63;103193.11;1693567;82;98779;-70
2022/03/21 09:06:34;;;;;;;42.90;19.25;;;;;;;6.86;38.54;103189.21;1697010;82;25758;-71
2022/03/21 09:09:00;;;;;;;38.55;18.60;;;;;;;6.93;38.47;103193.74;1701984;82;27427;-71
2022/03/21 09:11:26;;;;;;;40.15;19.20;;;;;;;7.02;38.34;103191.63;1691029;82;98775;-71
2022/03/21 09:13:52;;;;;;;43.80;18.62;;;;;;;7.12;38.20;103180.19;1697002;82;25870;-71
2022/03/21 09:16:19;;;;;;;42.00;17.87;;;;;;;7.20;38.10;103186.51;1708401;82;98850;-70
2022/03/21 09:18:44;;;;;;;40.88;19.32;;;;;;;7.28;38.03;103182.16;1707567;82;26077;-71
2022/03/21 09:21:11;;;;;;;55.15;18.90;;;;;;;7.38;37.82;103180.48;1696560;82;27406;-70
2022/03/21 09:23:38;;;;;;;43.10;18.95;;;;;;;7.49;37.84;103181.04;1694651;82;98741;-70
2022/03/21 09:26:10;;;;;;;37.98;18.50;;;;;;;7.46;37.72;103150.76;1704924;82;26365;-70
2022/03/21 09:28:33;;;;;;;39.35;18.77;;;;;;;7.67;37.62;103178.98;1697353;82;98765;-70
2022/03/21 09:31:00;;;;;;;38.42;17.98;;;;;;;7.75;37.54;103180.39;1699798;82;25724;-70
2022/03/21 09:33:27;;;;;;;42.95;18.23;;;;;;;7.85;37.44;103173.32;1691039;82;27415;-70
2022/03/21 09:35:53;;;;;;;37.53;16.35;;;;;;;7.93;37.33;103169.83;1698283;82;98717;-69
2022/03/21 09:38:19;;;;;;;31.77;15.53;;;;;;;7.99;37.21;103170.31;1694902;82;25861;-69
2022/03/21 09:40:47;;;;;;;42.50;18.40;;;;;;;8.07;37.15;103169.49;1717381;80;98762;-70
2022/03/21 09:43:13;;;;;;;36.00;16.85;;;;;;;8.14;37.04;103167.77;1725302;80;25608;-70
2022/03/21 09:45:39;;;;;;;34.83;16.32;;;;;;;8.24;36.93;103167.38;1719971;81;98889;-69
2022/03/21 09:48:09;;;;;;;34.08;17.35;;;;;;;8.32;36.79;103157.19;1720449;81;26176;-70
2022/03/21 09:50:39;;;;;;;32.63;16.20;;;;;;;8.42;36.69;103156.84;1729933;80;25663;-70
2022/03/21 09:53:07;;;;;;;34.88;16.00;;;;;;;8.51;36.58;103157.33;1735688;80;98635;-65
2022/03/21 09:55:33;;;;;;;40.17;15.43;;;;;;;8.59;36.45;103145.80;1729187;81;25232;-65
2022/03/21 09:57:59;;;;;;;33.75;15.43;;;;;;;8.64;36.34;103146.70;1728306;80;98807;-64
2022/03/21 10:00:26;;;;;;;31.10;14.18;;;;;;;8.75;36.17;103150.32;1725421;80;25872;-64
2022/03/21 10:02:53;;;;;;;36.73;15.80;;;;;;;8.88;36.02;103147.25;1725286;81;25697;-63
2022/03/21 10:05:50;;;;;;;31.10;14.78;;;;;;;8.97;35.84;103146.39;1725917;80;98811;-64
2022/03/21 10:08:24;;;;;;;28.38;13.25;;;;;;;9.06;35.68;103143.30;1726099;81;25924;-64
2022/03/21 10:11:01;;;;;;;30.50;14.25;;;;;;;9.13;35.59;103133.95;1728287;81;98698;-64
2022/03/21 10:13:38;;;;;;;29.12;14.05;;;;;;;9.24;35.39;103129.07;1729409;80;25788;-64
2022/03/21 10:16:14;;;;;;;24.92;13.72;;;;;;;9.33;35.34;103128.19;1719991;81;98881;-63
2022/03/21 10:18:58;;;;;;;27.13;13.58;;;;;;;9.38;35.22;103127.31;1730132;81;27802;-65
2022/03/21 10:21:28;;;;;;;26.77;13.35;;;;;;;9.44;34.87;103117.95;1724536;80;25807;-65
2022/03/21 10:24:07;;;;;;;38.48;13.53;;;;;;;9.54;34.77;103125.53;1728083;81;98728;-65
2022/03/21 10:26:43;;;;;;;25.37;11.75;;;;;;;9.61;34.65;103123.31;1724855;81;27091;-65
2022/03/21 10:29:12;;;;;;;22.37;10.98;;;;;;;9.73;34.51;103110.36;1723164;81;98775;-64
2022/03/21 10:31:45;;;;;;;25.68;12.23;;;;;;;9.83;34.33;103109.91;1729339;81;27888;-64
2022/03/21 10:34:17;;;;;;;27.55;12.53;;;;;;;9.92;34.26;103114.81;1724017;81;99126;-63
2022/03/21 10:37:06;;;;;;;25.48;11.55;;;;;;;10.02;33.98;103111.67;1730225;81;26903;-63
2022/03/21 10:39:36;;;;;;;25.88;11.22;;;;;;;10.13;33.93;103106.30;1715940;81;25663;-64
2022/03/21 10:42:12;;;;;;;24.23;12.23;;;;;;;10.29;33.75;103108.07;1725609;80;98903;-64
2022/03/21 10:44:39;;;;;;;22.22;12.18;;;;;;;10.38;33.55;103106.70;1706930;82;26231;-64
2022/03/21 10:47:07;;;;;;;24.43;12.18;;;;;;;10.48;33.38;103100.38;1725372;80;99096;-63
2022/03/21 10:49:43;;;;;;;21.10;11.15;;;;;;;10.55;33.23;103094.09;1715060;81;27458;-62
2022/03/21 10:52:19;;;;;;;18.87;11.10;;;;;;;10.64;33.05;103094.50;1715586;81;99369;-63
2022/03/21 10:54:50;;;;;;;24.25;12.20;;;;;;;10.78;32.98;103094.44;1721901;81;26444;-63
2022/03/21 10:57:33;;;;;;;26.05;12.10;;;;;;;10.85;32.65;103082.77;1727533;80;25887;-63
2022/03/21 11:00:26;;;;;;;21.62;11.88;;;;;;;10.89;32.49;103091.24;1731417;80;98803;-63
2022/03/21 11:03:13;;;;;;;20.65;10.93;;;;;;;11.00;32.24;103083.57;1730800;80;27417;-63
2022/03/21 11:05:45;;;;;;;23.27;11.53;;;;;;;11.08;32.09;103081.29;1723481;80;99163;-64
2022/03/21 11:08:15;;;;;;;26.82;10.10;;;;;;;11.18;31.99;103077.19;1728095;80;25670;-64
2022/03/21 11:10:41;;;;;;;24.77;10.23;;;;;;;11.31;31.84;103086.05;1725416;80;98941;-63
2022/03/21 11:13:10;;;;;;;30.52;10.98;;;;;;;11.40;31.41;103079.27;1725879;80;25773;-64
2022/03/21 11:15:40;;;;;;;18.80;8.80;;;;;;;11.49;31.42;103081.88;1727009;81;27431;-64
2022/03/21 11:18:06;;;;;;;17.80;9.33;;;;;;;11.59;31.21;103077.31;1724185;81;99045;-63
2022/03/21 11:20:33;;;;;;;22.20;8.48;;;;;;;11.68;31.12;103080.81;1723300;81;25799;-63
2022/03/21 11:23:01;;;;;;;19.10;8.50;;;;;;;11.84;31.02;103073.98;1716293;81;99035;-63
2022/03/21 11:25:32;;;;;;;28.57;10.68;;;;;;;11.95;30.78;103068.94;1738949;80;25789;-64
2022/03/21 11:28:12;;;;;;;17.87;9.95;;;;;;;12.05;30.44;103062.12;1707857;82;99253;-64
2022/03/21 11:31:10;;;;;;;16.95;8.50;;;;;;;12.15;30.09;103062.45;1735707;82;27209;-62
2022/03/21 11:33:48;;;;;;;24.52;9.38;;;;;;;12.20;29.95;103068.67;1729331;82;26040;-63
2022/03/21 11:36:15;;;;;;;19.52;9.78;;;;;;;12.33;29.93;103059.55;1730205;82;98609;-65
2022/03/21 11:38:45;;;;;;;24.72;10.25;;;;;;;12.48;29.72;103052.63;1738997;82;25702;-62
2022/03/21 11:41:24;;;;;;;27.07;9.90;;;;;;;12.59;29.56;103043.08;1731164;80;98270;-63
2022/03/21 11:44:07;;;;;;;22.45;11.48;;;;;;;12.71;29.54;103044.25;1713353;81;26206;-63
2022/03/21 11:46:38;;;;;;;24.92;11.85;;;;;;;12.84;29.36;103047.66;1705466;81;99299;-63